Time;durP1;ratioP1;P1;durP2;ratioP2;P2;SDS_P1;SDS_P2;PMS_P1;PMS_P2;Temp;Humidity;BMP_temperature;BMP_pressure;BME280_temperature;BME280_humidity;BME280_pressure;Samples;Min_cycle;Max_cycle;Signal;HPM_P1;HPM_P2
2023/01/16 10:58:58;;;;;;;8.63;3.27;;;4.10;99.90;;;;;;6228866;22;20829;-88
2023/01/16 11:04:40;;;;;;;7.95;3.08;;;4.00;99.90;;;;;;6244346;22;20020;-89
2023/01/16 11:07:18;;;;;;;10.55;2.50;;;3.80;99.90;;;;;;6216110;23;20016;-90
2023/01/16 11:09:48;;;;;;;7.57;2.25;;;4.00;99.90;;;;;;6190643;23;20408;-91
2023/01/16 11:18:28;;;;;;;7.78;2.20;;;3.80;99.90;;;;;;6214768;23;20035;-89
2023/01/16 11:20:57;;;;;;;7.03;1.98;;;3.70;99.90;;;;;;6189461;23;20074;-90
2023/01/16 11:23:26;;;;;;;6.13;1.70;;;3.60;99.90;;;;;;6189401;23;20044;-89
2023/01/16 11:25:56;;;;;;;3.83;1.42;;;3.60;99.90;;;;;;6189066;23;20016;-89
2023/01/16 11:28:27;;;;;;;5.40;1.85;;;3.60;99.90;;;;;;6215048;23;20012;-88
2023/01/16 11:30:57;;;;;;;6.70;1.63;;;3.50;99.90;;;;;;6212800;23;20078;-89
2023/01/16 11:33:27;;;;;;;5.03;1.20;;;3.50;99.90;;;;;;6189569;23;20035;-88
2023/01/16 11:35:56;;;;;;;5.28;1.52;;;4.10;99.90;;;;;;6189059;23;20340;-88
2023/01/16 11:38:23;;;;;;;4.85;1.73;;;3.50;99.90;;;;;;6189214;23;20118;-89
2023/01/16 11:40:52;;;;;;;9.38;1.48;;;2.90;99.90;;;;;;6188443;23;20103;-88
2023/01/16 11:46:27;;;;;;;4.00;1.55;;;3.40;99.90;;;;;;6214441;23;20024;-88
2023/01/16 11:48:54;;;;;;;4.72;1.40;;;3.50;99.90;;;;;;6214383;23;20020;-86
2023/01/16 11:51:26;;;;;;;8.85;1.63;;;4.60;99.90;;;;;;6189617;23;20186;-87
2023/01/16 11:53:53;;;;;;;6.10;1.75;;;4.60;99.90;;;;;;6189380;23;20023;-87
2023/01/16 11:56:35;;;;;;;6.07;1.70;;;3.50;99.90;;;;;;6215978;23;20023;-87
2023/01/16 11:59:23;;;;;;;4.85;2.30;;;3.60;99.90;;;;;;6188520;23;20746;-87
2023/01/16 12:02:17;;;;;;;5.82;1.48;;;3.50;99.90;;;;;;6214271;23;20441;-87
2023/01/16 12:08:02;;;;;;;4.82;2.00;;;3.60;99.90;;;;;;6213866;23;20028;-87
2023/01/16 12:10:39;;;;;;;5.45;1.63;;;3.50;99.90;;;;;;6214447;23;20012;-87
2023/01/16 12:16:00;;;;;;;4.43;1.67;;;3.60;99.90;;;;;;6213612;23;20027;-88
2023/01/16 12:18:47;;;;;;;4.25;2.03;;;4.70;99.90;;;;;;6215363;23;20016;-87
2023/01/16 12:21:55;;;;;;;6.55;1.88;;;3.40;99.90;;;;;;6190196;23;20012;-88
2023/01/16 12:24:42;;;;;;;8.05;1.90;;;2.90;99.90;;;;;;6190112;23;20200;-87
2023/01/16 12:27:58;;;;;;;7.85;2.00;;;2.90;99.90;;;;;;6188333;23;20463;-87
2023/01/16 12:30:53;;;;;;;5.13;1.90;;;3.60;99.90;;;;;;6214180;23;20062;-87
2023/01/16 12:33:32;;;;;;;5.68;2.10;;;3.60;99.90;;;;;;6189448;23;20154;-86
2023/01/16 12:36:06;;;;;;;6.35;2.00;;;3.70;99.90;;;;;;6189266;23;20020;-88
2023/01/16 12:38:37;;;;;;;5.05;2.15;;;3.60;99.90;;;;;;6215072;23;20066;-87
2023/01/16 12:44:07;;;;;;;5.10;2.00;;;3.40;99.90;;;;;;6213995;23;20349;-88
2023/01/16 12:46:54;;;;;;;6.32;2.30;;;3.70;99.90;;;;;;6189537;23;20337;-88
2023/01/16 12:50:08;;;;;;;7.68;2.20;;;3.70;99.90;;;;;;6189077;23;20081;-87
2023/01/16 12:52:52;;;;;;;6.13;2.55;;;3.80;99.90;;;;;;6189781;23;20016;-87
2023/01/16 12:55:32;;;;;;;6.40;2.10;;;3.70;99.90;;;;;;6214199;23;20082;-87
2023/01/16 12:58:19;;;;;;;8.98;2.60;;;3.80;99.90;;;;;;6189274;23;20023;-87
2023/01/16 13:01:09;;;;;;;4.85;2.33;;;3.70;99.90;;;;;;6188921;23;20059;-87
2023/01/16 13:03:44;;;;;;;7.68;2.53;;;4.70;99.90;;;;;;6213278;23;20073;-88
2023/01/16 13:06:15;;;;;;;10.05;2.33;;;4.70;99.90;;;;;;6215687;23;20027;-88
2023/01/16 13:08:51;;;;;;;6.07;2.20;;;3.90;99.90;;;;;;6188995;23;20043;-87
2023/01/16 13:14:12;;;;;;;5.88;2.38;;;4.20;99.90;;;;;;6213866;23;20036;-88
2023/01/16 13:16:44;;;;;;;5.95;1.98;;;3.60;99.90;;;;;;6189246;23;20340;-87
2023/01/16 13:19:17;;;;;;;8.57;2.50;;;4.00;99.90;;;;;;6215131;23;20459;-88
2023/01/16 13:21:55;;;;;;;8.73;2.38;;;4.00;99.90;;;;;;6189906;23;20012;-88
2023/01/16 13:24:34;;;;;;;3.47;1.90;;;4.00;99.90;;;;;;6189720;23;20048;-87
2023/01/16 13:27:09;;;;;;;4.43;2.40;;;3.50;99.90;;;;;;6213049;23;20055;-88
2023/01/16 13:29:46;;;;;;;7.55;2.45;;;4.00;99.90;;;;;;6181395;23;20035;-88
2023/01/16 13:32:40;;;;;;;4.95;2.35;;;4.20;99.90;;;;;;6206311;23;20099;-87
2023/01/16 13:35:51;;;;;;;8.70;2.80;;;4.00;99.90;;;;;;6188912;23;20042;-88
2023/01/16 13:39:05;;;;;;;5.95;2.50;;;4.00;99.90;;;;;;6189957;23;20016;-88
2023/01/16 13:41:36;;;;;;;5.68;2.95;;;3.50;99.90;;;;;;6190313;23;20497;-88
2023/01/16 13:51:26;;;;;;;7.72;4.90;;;4.00;99.90;;;;;;6214041;23;20039;-88
2023/01/16 13:54:04;;;;;;;6.15;3.53;;;4.00;99.90;;;;;;6121566;23;20021;-91
2023/01/16 13:56:49;;;;;;;9.13;5.13;;;4.00;99.90;;;;;;6166735;23;20026;-88
2023/01/16 13:59:47;;;;;;;5.60;3.00;;;4.10;99.90;;;;;;6232037;23;20020;-88
2023/01/16 14:02:47;;;;;;;7.88;2.28;;;3.60;99.90;;;;;;6204553;23;20115;-87
2023/01/16 14:05:23;;;;;;;5.90;2.55;;;4.10;99.90;;;;;;6187072;23;20020;-88
2023/01/16 14:11:16;;;;;;;;;;;;;;;;;;;;;
2023/01/16 14:13:48;;;;;;;8.65;2.60;;;4.10;99.90;;;;;;6210823;23;20063;-87
2023/01/16 14:16:31;;;;;;;7.85;2.28;;;3.60;99.90;;;;;;6188968;23;20099;-88
2023/01/16 14:20:05;;;;;;;4.25;2.22;;;4.20;99.90;;;;;;6213576;23;20337;-88
2023/01/16 14:28:54;;;;;;;4.10;2.10;;;3.40;99.90;;;;;;6239228;22;20040;-87
2023/01/16 14:35:24;;;;;;;;;;;;;;;;;;;;;
2023/01/16 14:38:52;;;;;;;5.90;2.45;;;4.20;99.90;;;;;;6214274;23;20074;-88
2023/01/16 15:08:56;;;;;;;6.53;3.22;;;4.20;99.90;;;;;;6149214;23;20076;-90
2023/01/16 15:31:57;;;;;;;;;;;;;;;;;;;;;
2023/01/16 15:48:10;;;;;;;4.47;2.00;;;5.00;99.90;;;;;;6178557;23;20048;-88
2023/01/16 15:51:45;;;;;;;5.50;2.83;;;4.10;99.90;;;;;;6181652;23;20055;-89
2023/01/16 17:49:01;;;;;;;6.25;4.20;;;3.90;99.90;;;;;;6214375;23;20119;-91
2023/01/16 17:52:31;;;;;;;5.95;4.43;;;4.00;99.90;;;;;;6232409;23;20089;-89
2023/01/16 18:01:18;;;;;;;8.57;6.03;;;3.80;99.90;;;;;;6215118;23;20020;-88
2023/01/16 18:04:34;;;;;;;9.77;7.60;;;3.80;99.90;;;;;;6190110;23;20397;-91
2023/01/16 18:08:19;;;;;;;9.00;6.43;;;3.90;99.90;;;;;;6200386;23;20397;-92
2023/01/16 18:17:28;;;;;;;9.60;7.28;;;3.80;99.90;;;;;;6215300;23;20396;-91
2023/01/16 18:20:01;;;;;;;10.93;7.68;;;3.80;99.90;;;;;;6114867;23;20459;-89
2023/01/16 18:22:31;;;;;;;10.93;7.15;;;4.50;99.90;;;;;;6213200;23;20016;-91
2023/01/16 18:24:57;;;;;;;10.88;8.30;;;3.80;99.90;;;;;;6189331;23;20012;-88
2023/01/16 18:27:23;;;;;;;12.18;10.45;;;3.80;99.90;;;;;;6187959;23;20020;-89
2023/01/16 18:29:49;;;;;;;13.43;9.85;;;4.40;99.90;;;;;;6184688;23;20531;-90
2023/01/16 18:32:19;;;;;;;12.02;8.88;;;3.80;99.90;;;;;;6210785;23;20452;-93
2023/01/16 18:34:49;;;;;;;15.68;9.52;;;4.80;99.90;;;;;;6189806;23;20094;-87
2023/01/16 18:37:17;;;;;;;11.07;7.20;;;3.90;99.90;;;;;;6213858;23;20016;-89
2023/01/16 19:02:12;;;;;;;13.68;11.80;;;3.90;99.90;;;;;;6215038;23;20035;-86
2023/01/16 19:04:38;;;;;;;17.23;13.27;;;3.90;99.90;;;;;;6214995;23;20051;-87
2023/01/16 19:07:08;;;;;;;13.65;11.35;;;4.10;99.90;;;;;;6189775;23;20035;-87
2023/01/16 19:09:36;;;;;;;14.85;11.10;;;4.40;99.90;;;;;;6215139;23;20290;-88
2023/01/16 19:12:05;;;;;;;16.92;12.02;;;4.00;99.90;;;;;;6190166;23;20020;-88
2023/01/16 19:14:33;;;;;;;18.60;12.65;;;3.90;99.90;;;;;;6190470;23;20024;-88
2023/01/16 19:16:59;;;;;;;22.05;13.57;;;3.90;99.90;;;;;;6190736;23;20032;-88
2023/01/16 19:19:25;;;;;;;19.52;13.32;;;4.80;99.90;;;;;;6214970;23;20094;-87
2023/01/16 19:21:52;;;;;;;20.90;13.82;;;4.00;99.90;;;;;;6188098;23;20016;-87
2023/01/16 19:24:18;;;;;;;19.45;13.55;;;4.00;99.90;;;;;;6190309;23;20020;-88
2023/01/16 19:26:45;;;;;;;18.48;13.63;;;4.90;99.90;;;;;;6189070;23;20457;-88
2023/01/16 19:29:12;;;;;;;19.30;13.73;;;4.00;99.90;;;;;;6188676;23;20051;-89
2023/01/16 19:31:40;;;;;;;20.13;13.68;;;3.90;99.90;;;;;;6190872;23;20039;-87
2023/01/16 19:34:11;;;;;;;20.95;14.75;;;4.00;99.90;;;;;;6190082;23;20097;-88
2023/01/16 19:37:17;;;;;;;17.55;14.35;;;3.80;99.90;;;;;;6232191;23;20120;-88
2023/01/16 19:39:46;;;;;;;19.60;14.38;;;4.10;99.90;;;;;;6190816;23;20387;-87
2023/01/16 19:48:01;;;;;;;18.92;13.38;;;4.00;99.90;;;;;;6216514;23;20024;-88
2023/01/16 19:50:57;;;;;;;15.00;11.65;;;4.90;99.90;;;;;;6190202;23;20098;-89
2023/01/16 19:53:23;;;;;;;16.92;12.00;;;3.90;99.90;;;;;;6214979;23;20098;-89
2023/01/16 19:55:54;;;;;;;16.30;12.48;;;4.00;99.90;;;;;;6215363;23;20817;-88
2023/01/16 19:58:20;;;;;;;16.67;13.40;;;3.80;99.90;;;;;;6189968;23;20024;-88
2023/01/16 20:00:49;;;;;;;16.38;12.63;;;3.90;99.90;;;;;;6189202;23;20027;-89
2023/01/16 20:03:15;;;;;;;17.98;12.95;;;3.90;99.90;;;;;;6188989;23;20016;-88
2023/01/16 20:05:42;;;;;;;19.00;13.75;;;3.90;99.90;;;;;;6189410;23;20016;-87
2023/01/16 20:08:08;;;;;;;18.23;14.50;;;3.90;99.90;;;;;;6214361;23;20340;-88
2023/01/16 20:10:34;;;;;;;21.67;16.35;;;3.90;99.90;;;;;;6190028;23;20038;-88
2023/01/16 20:13:00;;;;;;;22.40;16.77;;;3.90;99.90;;;;;;6187738;23;20016;-88
2023/01/16 20:15:25;;;;;;;22.08;16.88;;;3.90;99.90;;;;;;6240306;23;20027;-89
2023/01/16 20:17:51;;;;;;;22.88;16.17;;;3.90;99.90;;;;;;6213927;23;20016;-88
2023/01/16 20:20:17;;;;;;;19.40;14.52;;;4.50;99.90;;;;;;6190422;23;20023;-90
2023/01/16 20:22:46;;;;;;;18.13;14.15;;;4.00;99.90;;;;;;6190321;23;20146;-89
2023/01/16 20:25:15;;;;;;;18.15;13.20;;;4.60;99.90;;;;;;6215607;23;20016;-89
2023/01/16 20:28:04;;;;;;;14.23;10.55;;;4.00;99.90;;;;;;6189706;23;20016;-89
2023/01/16 20:30:45;;;;;;;11.45;8.27;;;3.90;99.90;;;;;;6190671;23;20023;-89
2023/01/16 20:33:13;;;;;;;10.35;7.45;;;4.20;99.90;;;;;;6190121;23;20020;-89
2023/01/16 20:35:39;;;;;;;12.25;7.88;;;3.60;99.90;;;;;;6189699;23;20012;-89
2023/01/16 20:38:05;;;;;;;11.35;7.70;;;3.90;99.90;;;;;;6189742;23;20067;-90
2023/01/16 20:41:11;;;;;;;11.95;8.18;;;3.70;99.90;;;;;;6221295;23;20103;-89
2023/01/16 20:46:51;;;;;;;13.32;8.15;;;3.20;99.90;;;;;;6213600;23;20103;-90
2023/01/16 20:49:22;;;;;;;13.75;8.18;;;3.70;99.90;;;;;;6208337;23;20020;-90
2023/01/16 20:51:51;;;;;;;13.57;8.75;;;3.00;99.90;;;;;;6215601;23;20016;-90
2023/01/16 20:54:17;;;;;;;15.05;8.52;;;3.00;99.90;;;;;;6216485;23;20042;-91
2023/01/16 20:56:45;;;;;;;14.45;8.82;;;2.90;99.90;;;;;;6191622;23;20426;-89
2023/01/16 20:59:17;;;;;;;13.25;8.40;;;3.00;99.90;;;;;;6215862;23;20020;-90
2023/01/16 21:01:45;;;;;;;13.55;7.68;;;2.90;99.90;;;;;;6215148;23;20443;-90
2023/01/16 21:04:16;;;;;;;11.35;6.95;;;2.50;99.90;;;;;;6191454;23;20110;-90
2023/01/16 21:06:43;;;;;;;9.65;6.60;;;2.30;99.90;;;;;;6190034;23;20099;-89
2023/01/16 21:09:10;;;;;;;9.35;6.35;;;2.90;99.90;;;;;;6190578;23;20016;-90
2023/01/16 21:14:54;;;;;;;7.47;5.15;;;2.80;99.90;;;;;;6215120;23;20056;-90
2023/01/16 21:23:24;;;;;;;8.25;5.47;;;2.60;99.90;;;;;;6214993;23;20020;-89
2023/01/16 21:26:58;;;;;;;6.43;4.68;;;2.10;99.90;;;;;;6189336;23;20047;-90
2023/01/16 21:30:11;;;;;;;9.23;5.97;;;2.40;99.90;;;;;;6190919;23;20017;-89
2023/01/16 21:32:50;;;;;;;8.52;6.10;;;2.50;99.90;;;;;;6206846;23;20024;-89
2023/01/16 21:35:39;;;;;;;8.65;5.50;;;2.40;99.90;;;;;;6205639;23;20012;-90
2023/01/16 21:38:50;;;;;;;7.82;5.50;;;2.30;99.90;;;;;;6190466;23;20095;-90
2023/01/16 21:41:17;;;;;;;8.52;5.85;;;3.00;99.90;;;;;;6050529;23;20014;-89
2023/01/16 21:47:21;;;;;;;8.50;5.88;;;2.00;99.90;;;;;;6214436;23;20016;-89
2023/01/16 21:50:00;;;;;;;;;;;;;;;;;;;;;
2023/01/16 21:53:13;;;;;;;;;;;;;;;;;;;;;
2023/01/16 21:59:32;;;;;;;11.27;7.80;;;2.30;99.90;;;;;;6214275;23;20078;-90
2023/01/16 22:06:24;;;;;;;10.90;7.00;;;2.90;99.90;;;;;;6124689;23;20272;-90
2023/01/16 22:10:08;;;;;;;10.75;6.78;;;2.40;99.90;;;;;;6141627;23;20510;-89
2023/01/16 22:19:56;;;;;;;;;;;;;;;;;;;;;
2023/01/16 22:42:02;;;;;;;;;;;;;;;;;;;;;
2023/01/16 22:52:46;;;;;;;11.52;6.45;;;3.10;99.90;;;;;;6058723;23;20027;-88
2023/01/16 22:56:47;;;;;;;;;;;;;;;;;;;;;
2023/01/16 23:03:49;;;;;;;;;;;;;;;;;;;;;
2023/01/16 23:07:53;;;;;;;6.13;2.53;;;2.60;99.90;;;;;;6062904;23;20089;-87
2023/01/16 23:15:13;;;;;;;5.38;0.60;;;3.00;99.90;;;;;;6118873;23;20463;-88
2023/01/16 23:27:17;;;;;;;6.80;0.30;;;3.70;99.90;;;;;;6050986;23;20077;-89
2023/01/16 23:44:51;;;;;;;8.93;0.77;;;4.30;99.90;;;;;;6091814;23;20029;-88
2023/01/16 23:47:25;;;;;;;5.45;0.40;;;3.30;99.90;;;;;;6074262;23;20034;-88
2023/01/16 23:49:53;;;;;;;1.60;0.38;;;3.90;99.90;;;;;;6142488;23;20025;-88
2023/01/16 23:52:56;;;;;;;3.00;0.30;;;3.10;99.90;;;;;;6161983;23;20013;-88
2023/01/16 23:55:35;;;;;;;4.35;0.30;;;3.80;99.90;;;;;;6184726;23;20025;-87
2023/01/16 23:58:04;;;;;;;6.07;0.40;;;3.40;99.90;;;;;;6160248;23;20025;-87
